sensor_id;sensor_type;location;lat;lon;timestamp;temperature;humidity
12156;DHT22;6141;49.092;8.516;2023-04-03T00:01:26;6.50;42.40
12156;DHT22;6141;49.092;8.516;2023-04-03T00:03:59;6.60;45.00
12156;DHT22;6141;49.092;8.516;2023-04-03T00:06:29;6.60;44.60
12156;DHT22;6141;49.092;8.516;2023-04-03T00:08:58;6.70;42.90
12156;DHT22;6141;49.092;8.516;2023-04-03T00:11:26;6.70;42.80
12156;DHT22;6141;49.092;8.516;2023-04-03T00:13:54;6.70;43.30
12156;DHT22;6141;49.092;8.516;2023-04-03T00:16:23;6.80;44.90
12156;DHT22;6141;49.092;8.516;2023-04-03T00:18:51;6.80;44.30
12156;DHT22;6141;49.092;8.516;2023-04-03T00:21:20;6.70;43.90
12156;DHT22;6141;49.092;8.516;2023-04-03T00:23:50;6.80;44.70
12156;DHT22;6141;49.092;8.516;2023-04-03T00:26:20;6.50;44.20
12156;DHT22;6141;49.092;8.516;2023-04-03T00:28:48;6.50;45.00
12156;DHT22;6141;49.092;8.516;2023-04-03T00:31:16;6.40;42.30
12156;DHT22;6141;49.092;8.516;2023-04-03T00:33:44;6.40;42.30
12156;DHT22;6141;49.092;8.516;2023-04-03T00:36:12;6.40;43.80
12156;DHT22;6141;49.092;8.516;2023-04-03T00:38:40;6.50;42.40
12156;DHT22;6141;49.092;8.516;2023-04-03T00:41:10;6.50;43.40
12156;DHT22;6141;49.092;8.516;2023-04-03T00:43:38;6.40;42.30
12156;DHT22;6141;49.092;8.516;2023-04-03T00:46:07;6.40;40.70
12156;DHT22;6141;49.092;8.516;2023-04-03T00:48:37;6.40;42.30
12156;DHT22;6141;49.092;8.516;2023-04-03T00:51:08;6.40;42.20
12156;DHT22;6141;49.092;8.516;2023-04-03T00:53:39;6.30;40.80
12156;DHT22;6141;49.092;8.516;2023-04-03T00:56:08;6.20;42.10
12156;DHT22;6141;49.092;8.516;2023-04-03T00:58:40;6.20;40.80
12156;DHT22;6141;49.092;8.516;2023-04-03T01:01:10;6.20;42.10
12156;DHT22;6141;49.092;8.516;2023-04-03T01:03:39;6.20;42.10
12156;DHT22;6141;49.092;8.516;2023-04-03T01:06:08;6.30;41.70
12156;DHT22;6141;49.092;8.516;2023-04-03T01:08:36;6.20;42.10
12156;DHT22;6141;49.092;8.516;2023-04-03T01:11:04;6.20;42.70
12156;DHT22;6141;49.092;8.516;2023-04-03T01:13:33;6.20;43.10
12156;DHT22;6141;49.092;8.516;2023-04-03T01:16:05;6.30;43.00
12156;DHT22;6141;49.092;8.516;2023-04-03T01:18:34;6.30;44.20
12156;DHT22;6141;49.092;8.516;2023-04-03T01:24:05;6.20;43.20
12156;DHT22;6141;49.092;8.516;2023-04-03T01:26:36;6.00;45.00
12156;DHT22;6141;49.092;8.516;2023-04-03T01:29:04;6.00;44.70
12156;DHT22;6141;49.092;8.516;2023-04-03T01:31:42;6.00;45.80
12156;DHT22;6141;49.092;8.516;2023-04-03T01:34:11;6.00;45.60
12156;DHT22;6141;49.092;8.516;2023-04-03T01:36:39;6.00;47.00
12156;DHT22;6141;49.092;8.516;2023-04-03T01:39:07;6.00;46.70
12156;DHT22;6141;49.092;8.516;2023-04-03T01:41:35;5.80;46.80
12156;DHT22;6141;49.092;8.516;2023-04-03T01:44:12;5.80;45.80
12156;DHT22;6141;49.092;8.516;2023-04-03T01:46:42;5.70;46.80
12156;DHT22;6141;49.092;8.516;2023-04-03T01:49:10;5.70;48.00
12156;DHT22;6141;49.092;8.516;2023-04-03T01:51:38;5.70;47.50
12156;DHT22;6141;49.092;8.516;2023-04-03T01:54:06;5.70;47.60
12156;DHT22;6141;49.092;8.516;2023-04-03T01:56:34;5.70;47.40
12156;DHT22;6141;49.092;8.516;2023-04-03T01:59:02;5.70;47.90
12156;DHT22;6141;49.092;8.516;2023-04-03T02:01:30;5.70;47.70
12156;DHT22;6141;49.092;8.516;2023-04-03T02:04:01;5.70;47.70
12156;DHT22;6141;49.092;8.516;2023-04-03T02:06:29;5.60;47.70
12156;DHT22;6141;49.092;8.516;2023-04-03T02:08:57;5.60;47.20
12156;DHT22;6141;49.092;8.516;2023-04-03T02:11:25;5.70;48.20
12156;DHT22;6141;49.092;8.516;2023-04-03T02:13:54;5.60;48.70
12156;DHT22;6141;49.092;8.516;2023-04-03T02:16:23;5.50;48.70
12156;DHT22;6141;49.092;8.516;2023-04-03T02:18:54;5.60;49.00
12156;DHT22;6141;49.092;8.516;2023-04-03T02:21:24;5.60;49.30
12156;DHT22;6141;49.092;8.516;2023-04-03T02:23:54;5.40;48.60
12156;DHT22;6141;49.092;8.516;2023-04-03T02:26:33;5.30;48.60
12156;DHT22;6141;49.092;8.516;2023-04-03T02:29:11;5.40;49.10
12156;DHT22;6141;49.092;8.516;2023-04-03T02:31:41;5.40;48.20
12156;DHT22;6141;49.092;8.516;2023-04-03T02:34:17;5.40;49.00
12156;DHT22;6141;49.092;8.516;2023-04-03T02:36:48;5.30;49.10
12156;DHT22;6141;49.092;8.516;2023-04-03T02:39:17;5.40;47.70
12156;DHT22;6141;49.092;8.516;2023-04-03T02:41:45;5.40;48.00
12156;DHT22;6141;49.092;8.516;2023-04-03T02:44:19;5.40;48.10
12156;DHT22;6141;49.092;8.516;2023-04-03T02:46:48;5.40;48.20
12156;DHT22;6141;49.092;8.516;2023-04-03T02:49:17;5.40;48.20
12156;DHT22;6141;49.092;8.516;2023-04-03T02:51:45;5.30;49.50
12156;DHT22;6141;49.092;8.516;2023-04-03T02:54:15;5.30;48.60
12156;DHT22;6141;49.092;8.516;2023-04-03T02:56:48;5.30;49.10
12156;DHT22;6141;49.092;8.516;2023-04-03T02:59:16;5.20;48.80
12156;DHT22;6141;49.092;8.516;2023-04-03T03:01:45;5.20;48.60
12156;DHT22;6141;49.092;8.516;2023-04-03T03:04:13;5.30;48.50
12156;DHT22;6141;49.092;8.516;2023-04-03T03:06:43;5.20;48.80
12156;DHT22;6141;49.092;8.516;2023-04-03T03:09:11;5.20;49.20
12156;DHT22;6141;49.092;8.516;2023-04-03T03:11:43;5.30;48.00
12156;DHT22;6141;49.092;8.516;2023-04-03T03:14:11;5.30;48.10
12156;DHT22;6141;49.092;8.516;2023-04-03T03:16:41;5.30;49.00
12156;DHT22;6141;49.092;8.516;2023-04-03T03:19:11;5.30;49.10
12156;DHT22;6141;49.092;8.516;2023-04-03T03:21:39;5.30;49.30
12156;DHT22;6141;49.092;8.516;2023-04-03T03:24:07;5.30;49.10
12156;DHT22;6141;49.092;8.516;2023-04-03T03:26:35;5.20;48.20
12156;DHT22;6141;49.092;8.516;2023-04-03T03:29:05;5.30;49.60
12156;DHT22;6141;49.092;8.516;2023-04-03T03:31:33;5.40;49.10
12156;DHT22;6141;49.092;8.516;2023-04-03T03:34:01;5.40;49.00
12156;DHT22;6141;49.092;8.516;2023-04-03T03:36:30;5.40;47.80
12156;DHT22;6141;49.092;8.516;2023-04-03T03:38:58;5.40;48.10
12156;DHT22;6141;49.092;8.516;2023-04-03T03:41:26;5.30;48.80
12156;DHT22;6141;49.092;8.516;2023-04-03T03:43:54;5.30;48.20
12156;DHT22;6141;49.092;8.516;2023-04-03T03:46:24;5.30;48.60
12156;DHT22;6141;49.092;8.516;2023-04-03T03:48:53;5.30;47.80
12156;DHT22;6141;49.092;8.516;2023-04-03T03:51:21;5.20;48.90
12156;DHT22;6141;49.092;8.516;2023-04-03T03:53:49;5.20;49.70
12156;DHT22;6141;49.092;8.516;2023-04-03T03:56:19;5.20;50.10
12156;DHT22;6141;49.092;8.516;2023-04-03T03:58:48;5.30;48.30
12156;DHT22;6141;49.092;8.516;2023-04-03T04:01:17;5.20;48.90
12156;DHT22;6141;49.092;8.516;2023-04-03T04:03:48;5.10;49.20
12156;DHT22;6141;49.092;8.516;2023-04-03T04:06:20;5.10;50.10
12156;DHT22;6141;49.092;8.516;2023-04-03T04:08:50;5.10;50.30
12156;DHT22;6141;49.092;8.516;2023-04-03T04:11:18;5.20;50.00
12156;DHT22;6141;49.092;8.516;2023-04-03T04:13:48;5.20;49.90
12156;DHT22;6141;49.092;8.516;2023-04-03T04:16:18;5.30;49.10
12156;DHT22;6141;49.092;8.516;2023-04-03T04:18:48;5.30;49.90
12156;DHT22;6141;49.092;8.516;2023-04-03T04:21:19;5.20;48.50
12156;DHT22;6141;49.092;8.516;2023-04-03T04:23:50;5.20;48.00
12156;DHT22;6141;49.092;8.516;2023-04-03T04:26:19;5.20;47.90
12156;DHT22;6141;49.092;8.516;2023-04-03T04:28:47;5.30;48.70
12156;DHT22;6141;49.092;8.516;2023-04-03T04:31:17;5.30;47.40
12156;DHT22;6141;49.092;8.516;2023-04-03T04:33:46;5.40;47.50
12156;DHT22;6141;49.092;8.516;2023-04-03T04:36:16;5.40;46.00
12156;DHT22;6141;49.092;8.516;2023-04-03T04:38:46;5.40;46.00
12156;DHT22;6141;49.092;8.516;2023-04-03T04:41:14;5.20;45.60
12156;DHT22;6141;49.092;8.516;2023-04-03T04:43:43;5.30;46.30
12156;DHT22;6141;49.092;8.516;2023-04-03T04:46:13;5.20;46.00
12156;DHT22;6141;49.092;8.516;2023-04-03T04:48:46;5.00;45.90
12156;DHT22;6141;49.092;8.516;2023-04-03T04:51:19;4.90;46.70
12156;DHT22;6141;49.092;8.516;2023-04-03T04:53:47;4.80;46.90
12156;DHT22;6141;49.092;8.516;2023-04-03T04:56:18;4.60;47.00
12156;DHT22;6141;49.092;8.516;2023-04-03T04:58:47;4.60;47.10
12156;DHT22;6141;49.092;8.516;2023-04-03T05:01:18;4.50;47.40
12156;DHT22;6141;49.092;8.516;2023-04-03T05:03:55;4.50;47.70
12156;DHT22;6141;49.092;8.516;2023-04-03T05:06:25;4.50;48.20
12156;DHT22;6141;49.092;8.516;2023-04-03T05:08:55;4.40;47.90
12156;DHT22;6141;49.092;8.516;2023-04-03T05:11:24;4.50;47.70
12156;DHT22;6141;49.092;8.516;2023-04-03T05:13:52;4.50;47.60
12156;DHT22;6141;49.092;8.516;2023-04-03T05:16:23;4.40;48.50
12156;DHT22;6141;49.092;8.516;2023-04-03T05:18:52;4.40;47.00
12156;DHT22;6141;49.092;8.516;2023-04-03T05:21:22;4.40;48.60
12156;DHT22;6141;49.092;8.516;2023-04-03T05:23:57;4.40;48.40
12156;DHT22;6141;49.092;8.516;2023-04-03T05:26:25;4.40;48.40
12156;DHT22;6141;49.092;8.516;2023-04-03T05:28:57;4.40;48.80
12156;DHT22;6141;49.092;8.516;2023-04-03T05:31:26;4.40;49.10
12156;DHT22;6141;49.092;8.516;2023-04-03T05:33:56;4.40;49.40
12156;DHT22;6141;49.092;8.516;2023-04-03T05:36:26;4.40;49.50
12156;DHT22;6141;49.092;8.516;2023-04-03T05:39:01;4.40;50.00
12156;DHT22;6141;49.092;8.516;2023-04-03T05:41:30;4.30;50.90
12156;DHT22;6141;49.092;8.516;2023-04-03T05:43:58;4.30;51.20
12156;DHT22;6141;49.092;8.516;2023-04-03T05:46:27;4.30;52.20
12156;DHT22;6141;49.092;8.516;2023-04-03T05:48:57;4.30;51.80
12156;DHT22;6141;49.092;8.516;2023-04-03T05:51:30;4.40;50.00
12156;DHT22;6141;49.092;8.516;2023-04-03T05:54:09;4.40;51.50
12156;DHT22;6141;49.092;8.516;2023-04-03T05:56:38;4.40;50.80
12156;DHT22;6141;49.092;8.516;2023-04-03T05:59:06;4.50;50.60
12156;DHT22;6141;49.092;8.516;2023-04-03T06:01:36;4.60;50.80
12156;DHT22;6141;49.092;8.516;2023-04-03T06:04:07;4.50;49.70
12156;DHT22;6141;49.092;8.516;2023-04-03T06:06:43;4.60;51.40
12156;DHT22;6141;49.092;8.516;2023-04-03T06:09:14;4.70;52.20
12156;DHT22;6141;49.092;8.516;2023-04-03T06:11:43;4.80;51.30
12156;DHT22;6141;49.092;8.516;2023-04-03T06:14:13;4.70;50.20
12156;DHT22;6141;49.092;8.516;2023-04-03T06:16:41;4.70;51.20
12156;DHT22;6141;49.092;8.516;2023-04-03T06:19:10;4.60;51.40
12156;DHT22;6141;49.092;8.516;2023-04-03T06:21:44;4.80;50.30
12156;DHT22;6141;49.092;8.516;2023-04-03T06:24:15;4.80;50.60
12156;DHT22;6141;49.092;8.516;2023-04-03T06:26:44;4.80;50.20
12156;DHT22;6141;49.092;8.516;2023-04-03T06:29:12;4.80;50.20
12156;DHT22;6141;49.092;8.516;2023-04-03T06:31:40;4.90;49.60
12156;DHT22;6141;49.092;8.516;2023-04-03T06:34:08;4.90;49.60
12156;DHT22;6141;49.092;8.516;2023-04-03T06:36:37;5.00;50.00
12156;DHT22;6141;49.092;8.516;2023-04-03T06:39:06;5.00;48.80
12156;DHT22;6141;49.092;8.516;2023-04-03T06:41:36;5.10;48.60
12156;DHT22;6141;49.092;8.516;2023-04-03T06:44:04;5.20;50.10
12156;DHT22;6141;49.092;8.516;2023-04-03T06:46:33;5.20;47.50
12156;DHT22;6141;49.092;8.516;2023-04-03T06:49:04;5.40;47.80
12156;DHT22;6141;49.092;8.516;2023-04-03T06:51:35;6.00;48.00
12156;DHT22;6141;49.092;8.516;2023-04-03T06:54:03;6.20;45.10
12156;DHT22;6141;49.092;8.516;2023-04-03T06:56:32;5.90;45.40
12156;DHT22;6141;49.092;8.516;2023-04-03T06:59:02;5.80;45.70
12156;DHT22;6141;49.092;8.516;2023-04-03T07:01:30;6.00;45.40
12156;DHT22;6141;49.092;8.516;2023-04-03T07:03:59;6.00;45.90
12156;DHT22;6141;49.092;8.516;2023-04-03T07:06:27;6.10;45.10
12156;DHT22;6141;49.092;8.516;2023-04-03T07:08:56;6.40;43.00
12156;DHT22;6141;49.092;8.516;2023-04-03T07:11:24;6.70;43.00
12156;DHT22;6141;49.092;8.516;2023-04-03T07:13:52;6.90;42.80
12156;DHT22;6141;49.092;8.516;2023-04-03T07:16:22;7.20;43.10
12156;DHT22;6141;49.092;8.516;2023-04-03T07:18:51;7.50;42.10
12156;DHT22;6141;49.092;8.516;2023-04-03T07:21:19;7.70;39.30
12156;DHT22;6141;49.092;8.516;2023-04-03T07:23:47;7.80;39.50
12156;DHT22;6141;49.092;8.516;2023-04-03T07:26:20;8.00;39.10
12156;DHT22;6141;49.092;8.516;2023-04-03T07:28:49;7.80;39.20
12156;DHT22;6141;49.092;8.516;2023-04-03T07:31:18;8.10;38.90
12156;DHT22;6141;49.092;8.516;2023-04-03T07:33:49;8.40;38.00
12156;DHT22;6141;49.092;8.516;2023-04-03T07:36:19;8.70;36.50
12156;DHT22;6141;49.092;8.516;2023-04-03T07:38:47;8.90;37.00
12156;DHT22;6141;49.092;8.516;2023-04-03T07:41:16;9.00;35.00
12156;DHT22;6141;49.092;8.516;2023-04-03T07:43:45;9.20;36.40
12156;DHT22;6141;49.092;8.516;2023-04-03T07:46:17;9.00;37.50
12156;DHT22;6141;49.092;8.516;2023-04-03T07:48:46;8.80;38.20
12156;DHT22;6141;49.092;8.516;2023-04-03T07:51:15;9.30;38.10
12156;DHT22;6141;49.092;8.516;2023-04-03T07:53:44;9.10;35.80
12156;DHT22;6141;49.092;8.516;2023-04-03T07:56:12;9.30;35.20
12156;DHT22;6141;49.092;8.516;2023-04-03T07:58:40;9.30;35.80
12156;DHT22;6141;49.092;8.516;2023-04-03T08:01:08;9.20;35.30
12156;DHT22;6141;49.092;8.516;2023-04-03T08:03:37;9.50;36.40
12156;DHT22;6141;49.092;8.516;2023-04-03T08:06:07;9.50;33.60
12156;DHT22;6141;49.092;8.516;2023-04-03T08:08:43;9.40;35.70
12156;DHT22;6141;49.092;8.516;2023-04-03T08:11:13;9.00;35.70
12156;DHT22;6141;49.092;8.516;2023-04-03T08:13:42;9.00;35.10
12156;DHT22;6141;49.092;8.516;2023-04-03T08:16:11;8.90;34.00
12156;DHT22;6141;49.092;8.516;2023-04-03T08:19:02;9.20;35.20
12156;DHT22;6141;49.092;8.516;2023-04-03T08:21:57;9.00;35.80
12156;DHT22;6141;49.092;8.516;2023-04-03T08:24:29;9.00;32.80
12156;DHT22;6141;49.092;8.516;2023-04-03T08:26:57;8.80;35.30
12156;DHT22;6141;49.092;8.516;2023-04-03T08:29:28;8.80;34.80
12156;DHT22;6141;49.092;8.516;2023-04-03T08:31:59;8.50;34.30
12156;DHT22;6141;49.092;8.516;2023-04-03T08:34:27;8.60;35.50
12156;DHT22;6141;49.092;8.516;2023-04-03T08:36:55;8.40;35.60
12156;DHT22;6141;49.092;8.516;2023-04-03T08:39:24;8.90;35.10
12156;DHT22;6141;49.092;8.516;2023-04-03T08:41:54;9.10;35.10
12156;DHT22;6141;49.092;8.516;2023-04-03T08:44:24;9.50;32.30
12156;DHT22;6141;49.092;8.516;2023-04-03T08:46:56;9.80;33.60
12156;DHT22;6141;49.092;8.516;2023-04-03T08:49:28;9.90;35.00
12156;DHT22;6141;49.092;8.516;2023-04-03T08:51:59;9.90;33.80
12156;DHT22;6141;49.092;8.516;2023-04-03T08:54:29;9.70;34.20
12156;DHT22;6141;49.092;8.516;2023-04-03T08:57:03;9.40;33.70
12156;DHT22;6141;49.092;8.516;2023-04-03T08:59:34;9.00;34.70
12156;DHT22;6141;49.092;8.516;2023-04-03T09:02:04;9.40;33.60
12156;DHT22;6141;49.092;8.516;2023-04-03T09:04:44;9.80;32.80
12156;DHT22;6141;49.092;8.516;2023-04-03T09:07:13;9.40;31.70
12156;DHT22;6141;49.092;8.516;2023-04-03T09:09:45;9.30;31.20
12156;DHT22;6141;49.092;8.516;2023-04-03T09:12:18;9.40;32.50
12156;DHT22;6141;49.092;8.516;2023-04-03T09:14:56;9.30;33.00
12156;DHT22;6141;49.092;8.516;2023-04-03T09:17:30;9.20;30.80
12156;DHT22;6141;49.092;8.516;2023-04-03T09:20:03;9.10;32.20
12156;DHT22;6141;49.092;8.516;2023-04-03T09:22:34;9.00;32.10
12156;DHT22;6141;49.092;8.516;2023-04-03T09:25:18;8.90;32.10
12156;DHT22;6141;49.092;8.516;2023-04-03T09:27:49;9.20;32.50
12156;DHT22;6141;49.092;8.516;2023-04-03T09:30:20;9.30;30.40
12156;DHT22;6141;49.092;8.516;2023-04-03T09:32:50;9.40;29.90
12156;DHT22;6141;49.092;8.516;2023-04-03T09:35:23;9.70;32.00
12156;DHT22;6141;49.092;8.516;2023-04-03T09:38:14;9.80;28.20
12156;DHT22;6141;49.092;8.516;2023-04-03T09:40:43;10.30;28.70
12156;DHT22;6141;49.092;8.516;2023-04-03T09:43:22;10.70;27.50
12156;DHT22;6141;49.092;8.516;2023-04-03T09:45:51;10.90;27.40
12156;DHT22;6141;49.092;8.516;2023-04-03T09:48:21;11.10;27.50
12156;DHT22;6141;49.092;8.516;2023-04-03T09:50:55;11.30;30.10
12156;DHT22;6141;49.092;8.516;2023-04-03T09:53:30;11.10;25.70
12156;DHT22;6141;49.092;8.516;2023-04-03T09:55:58;10.60;26.70
12156;DHT22;6141;49.092;8.516;2023-04-03T09:58:29;10.90;26.10
12156;DHT22;6141;49.092;8.516;2023-04-03T10:01:20;10.70;26.60
12156;DHT22;6141;49.092;8.516;2023-04-03T10:03:50;10.80;26.60
12156;DHT22;6141;49.092;8.516;2023-04-03T10:06:30;10.60;26.10
12156;DHT22;6141;49.092;8.516;2023-04-03T10:08:59;10.00;23.70
12156;DHT22;6141;49.092;8.516;2023-04-03T10:11:27;9.70;26.70
12156;DHT22;6141;49.092;8.516;2023-04-03T10:14:00;9.70;27.60
12156;DHT22;6141;49.092;8.516;2023-04-03T10:16:35;9.70;25.70
12156;DHT22;6141;49.092;8.516;2023-04-03T10:19:16;10.30;26.90
12156;DHT22;6141;49.092;8.516;2023-04-03T10:21:46;9.90;24.70
12156;DHT22;6141;49.092;8.516;2023-04-03T10:24:17;9.90;25.70
12156;DHT22;6141;49.092;8.516;2023-04-03T10:26:50;9.80;25.40
12156;DHT22;6141;49.092;8.516;2023-04-03T10:29:30;9.80;23.80
12156;DHT22;6141;49.092;8.516;2023-04-03T10:32:06;9.60;23.70
12156;DHT22;6141;49.092;8.516;2023-04-03T10:34:40;9.50;24.40
12156;DHT22;6141;49.092;8.516;2023-04-03T10:37:13;9.60;26.70
12156;DHT22;6141;49.092;8.516;2023-04-03T10:39:46;9.40;25.80
12156;DHT22;6141;49.092;8.516;2023-04-03T10:42:20;9.50;26.00
12156;DHT22;6141;49.092;8.516;2023-04-03T10:45:01;9.40;25.30
12156;DHT22;6141;49.092;8.516;2023-04-03T10:47:32;9.40;26.50
12156;DHT22;6141;49.092;8.516;2023-04-03T10:50:09;9.60;26.70
12156;DHT22;6141;49.092;8.516;2023-04-03T10:52:42;9.70;25.80
12156;DHT22;6141;49.092;8.516;2023-04-03T10:55:16;9.40;23.30
12156;DHT22;6141;49.092;8.516;2023-04-03T10:57:49;9.40;26.00
12156;DHT22;6141;49.092;8.516;2023-04-03T11:00:21;9.30;26.20
12156;DHT22;6141;49.092;8.516;2023-04-03T11:02:51;9.40;26.20
12156;DHT22;6141;49.092;8.516;2023-04-03T11:05:21;9.40;25.00
12156;DHT22;6141;49.092;8.516;2023-04-03T11:07:54;9.50;22.80
12156;DHT22;6141;49.092;8.516;2023-04-03T11:10:25;9.30;25.80
12156;DHT22;6141;49.092;8.516;2023-04-03T11:12:59;9.20;26.30
12156;DHT22;6141;49.092;8.516;2023-04-03T11:15:32;9.10;26.30
12156;DHT22;6141;49.092;8.516;2023-04-03T11:18:02;9.20;25.60
12156;DHT22;6141;49.092;8.516;2023-04-03T11:20:31;9.20;25.30
12156;DHT22;6141;49.092;8.516;2023-04-03T11:23:03;9.30;24.60
12156;DHT22;6141;49.092;8.516;2023-04-03T11:25:32;9.50;25.40
12156;DHT22;6141;49.092;8.516;2023-04-03T11:28:02;9.50;24.60
12156;DHT22;6141;49.092;8.516;2023-04-03T11:30:33;9.50;24.70
12156;DHT22;6141;49.092;8.516;2023-04-03T11:33:12;9.50;23.30
12156;DHT22;6141;49.092;8.516;2023-04-03T11:35:43;9.50;23.90
12156;DHT22;6141;49.092;8.516;2023-04-03T11:38:14;9.50;23.70
12156;DHT22;6141;49.092;8.516;2023-04-03T11:40:45;9.50;25.00
12156;DHT22;6141;49.092;8.516;2023-04-03T11:43:20;9.60;25.30
12156;DHT22;6141;49.092;8.516;2023-04-03T11:45:51;9.50;25.60
12156;DHT22;6141;49.092;8.516;2023-04-03T11:48:41;9.50;23.80
12156;DHT22;6141;49.092;8.516;2023-04-03T11:53:53;9.60;25.30
12156;DHT22;6141;49.092;8.516;2023-04-03T11:56:31;9.50;24.20
12156;DHT22;6141;49.092;8.516;2023-04-03T12:02:00;9.50;24.40
12156;DHT22;6141;49.092;8.516;2023-04-03T12:04:30;9.50;23.60
12156;DHT22;6141;49.092;8.516;2023-04-03T12:12:38;9.30;25.90
12156;DHT22;6141;49.092;8.516;2023-04-03T12:15:24;9.60;27.20
12156;DHT22;6141;49.092;8.516;2023-04-03T12:17:54;9.70;27.20
12156;DHT22;6141;49.092;8.516;2023-04-03T12:23:23;9.70;25.40
12156;DHT22;6141;49.092;8.516;2023-04-03T12:25:51;9.80;25.10
12156;DHT22;6141;49.092;8.516;2023-04-03T12:28:27;9.80;25.70
12156;DHT22;6141;49.092;8.516;2023-04-03T12:30:55;9.70;22.80
12156;DHT22;6141;49.092;8.516;2023-04-03T12:33:26;9.70;25.00
12156;DHT22;6141;49.092;8.516;2023-04-03T12:35:58;9.60;24.40
12156;DHT22;6141;49.092;8.516;2023-04-03T12:38:37;9.70;23.50
12156;DHT22;6141;49.092;8.516;2023-04-03T12:41:18;9.80;24.80
12156;DHT22;6141;49.092;8.516;2023-04-03T12:46:42;9.90;25.30
12156;DHT22;6141;49.092;8.516;2023-04-03T12:49:14;9.80;24.80
12156;DHT22;6141;49.092;8.516;2023-04-03T12:51:46;9.70;26.60
12156;DHT22;6141;49.092;8.516;2023-04-03T12:54:16;9.70;26.70
12156;DHT22;6141;49.092;8.516;2023-04-03T12:56:45;9.60;24.90
12156;DHT22;6141;49.092;8.516;2023-04-03T12:59:14;9.40;25.40
12156;DHT22;6141;49.092;8.516;2023-04-03T13:01:42;9.50;26.10
12156;DHT22;6141;49.092;8.516;2023-04-03T13:04:11;9.60;27.20
12156;DHT22;6141;49.092;8.516;2023-04-03T13:06:41;9.70;25.20
12156;DHT22;6141;49.092;8.516;2023-04-03T13:09:18;9.90;26.10
12156;DHT22;6141;49.092;8.516;2023-04-03T13:11:48;9.70;25.30
12156;DHT22;6141;49.092;8.516;2023-04-03T13:14:18;9.80;25.60
12156;DHT22;6141;49.092;8.516;2023-04-03T13:16:54;9.70;27.20
12156;DHT22;6141;49.092;8.516;2023-04-03T13:19:23;10.20;26.20
12156;DHT22;6141;49.092;8.516;2023-04-03T13:21:58;10.60;22.00
12156;DHT22;6141;49.092;8.516;2023-04-03T13:24:29;10.40;21.90
12156;DHT22;6141;49.092;8.516;2023-04-03T13:26:57;10.40;22.40
12156;DHT22;6141;49.092;8.516;2023-04-03T13:29:29;10.20;23.00
12156;DHT22;6141;49.092;8.516;2023-04-03T13:31:59;10.00;22.30
12156;DHT22;6141;49.092;8.516;2023-04-03T13:34:29;10.00;24.00
12156;DHT22;6141;49.092;8.516;2023-04-03T13:37:00;10.20;23.30
12156;DHT22;6141;49.092;8.516;2023-04-03T13:39:30;10.20;21.70
12156;DHT22;6141;49.092;8.516;2023-04-03T13:41:59;10.10;19.90
12156;DHT22;6141;49.092;8.516;2023-04-03T13:44:30;9.90;22.80
12156;DHT22;6141;49.092;8.516;2023-04-03T13:47:00;9.60;24.70
12156;DHT22;6141;49.092;8.516;2023-04-03T13:49:30;9.50;25.80
12156;DHT22;6141;49.092;8.516;2023-04-03T13:52:01;9.40;25.50
12156;DHT22;6141;49.092;8.516;2023-04-03T13:54:34;9.30;25.50
12156;DHT22;6141;49.092;8.516;2023-04-03T13:57:10;9.30;26.70
12156;DHT22;6141;49.092;8.516;2023-04-03T13:59:39;9.30;26.00
12156;DHT22;6141;49.092;8.516;2023-04-03T14:02:16;9.40;25.50
12156;DHT22;6141;49.092;8.516;2023-04-03T14:04:47;9.20;24.40
12156;DHT22;6141;49.092;8.516;2023-04-03T14:07:17;9.30;25.40
12156;DHT22;6141;49.092;8.516;2023-04-03T14:09:46;9.40;26.20
12156;DHT22;6141;49.092;8.516;2023-04-03T14:12:15;9.30;25.50
12156;DHT22;6141;49.092;8.516;2023-04-03T14:14:57;9.30;25.40
12156;DHT22;6141;49.092;8.516;2023-04-03T14:17:25;9.30;24.90
12156;DHT22;6141;49.092;8.516;2023-04-03T14:19:57;9.30;24.00
12156;DHT22;6141;49.092;8.516;2023-04-03T14:22:29;9.20;24.50
12156;DHT22;6141;49.092;8.516;2023-04-03T14:24:58;9.30;25.20
12156;DHT22;6141;49.092;8.516;2023-04-03T14:27:33;9.40;26.40
12156;DHT22;6141;49.092;8.516;2023-04-03T14:30:02;9.40;23.80
12156;DHT22;6141;49.092;8.516;2023-04-03T14:32:31;9.40;23.70
12156;DHT22;6141;49.092;8.516;2023-04-03T14:35:00;9.40;25.00
12156;DHT22;6141;49.092;8.516;2023-04-03T14:37:30;9.60;24.50
12156;DHT22;6141;49.092;8.516;2023-04-03T14:39:59;9.50;23.70
12156;DHT22;6141;49.092;8.516;2023-04-03T14:42:28;9.30;22.90
12156;DHT22;6141;49.092;8.516;2023-04-03T14:44:57;9.30;24.20
12156;DHT22;6141;49.092;8.516;2023-04-03T14:47:26;9.20;23.70
12156;DHT22;6141;49.092;8.516;2023-04-03T14:49:58;9.20;22.10
12156;DHT22;6141;49.092;8.516;2023-04-03T14:52:29;9.20;23.60
12156;DHT22;6141;49.092;8.516;2023-04-03T14:54:58;9.30;21.90
12156;DHT22;6141;49.092;8.516;2023-04-03T14:57:28;9.50;22.30
12156;DHT22;6141;49.092;8.516;2023-04-03T14:59:59;10.00;20.40
12156;DHT22;6141;49.092;8.516;2023-04-03T15:02:29;10.50;21.00
12156;DHT22;6141;49.092;8.516;2023-04-03T15:04:59;10.60;20.00
12156;DHT22;6141;49.092;8.516;2023-04-03T15:07:31;10.30;21.10
12156;DHT22;6141;49.092;8.516;2023-04-03T15:10:09;10.30;21.00
12156;DHT22;6141;49.092;8.516;2023-04-03T15:12:41;10.40;21.10
12156;DHT22;6141;49.092;8.516;2023-04-03T15:15:10;10.10;18.90
12156;DHT22;6141;49.092;8.516;2023-04-03T15:17:38;9.80;21.00
12156;DHT22;6141;49.092;8.516;2023-04-03T15:20:10;9.70;21.20
12156;DHT22;6141;49.092;8.516;2023-04-03T15:22:40;9.40;21.90
12156;DHT22;6141;49.092;8.516;2023-04-03T15:25:12;9.50;22.00
12156;DHT22;6141;49.092;8.516;2023-04-03T15:27:40;9.60;21.50
12156;DHT22;6141;49.092;8.516;2023-04-03T15:30:11;9.80;21.60
12156;DHT22;6141;49.092;8.516;2023-04-03T15:32:40;10.00;19.90
12156;DHT22;6141;49.092;8.516;2023-04-03T15:35:13;9.90;22.00
12156;DHT22;6141;49.092;8.516;2023-04-03T15:37:42;10.00;19.90
12156;DHT22;6141;49.092;8.516;2023-04-03T15:40:12;10.20;19.80
12156;DHT22;6141;49.092;8.516;2023-04-03T15:42:40;10.50;20.40
12156;DHT22;6141;49.092;8.516;2023-04-03T15:45:09;10.30;19.20
12156;DHT22;6141;49.092;8.516;2023-04-03T15:47:41;10.20;19.60
12156;DHT22;6141;49.092;8.516;2023-04-03T15:50:09;9.90;20.20
12156;DHT22;6141;49.092;8.516;2023-04-03T15:52:38;9.40;19.10
12156;DHT22;6141;49.092;8.516;2023-04-03T15:55:09;9.00;20.60
12156;DHT22;6141;49.092;8.516;2023-04-03T15:57:39;9.10;21.70
12156;DHT22;6141;49.092;8.516;2023-04-03T16:00:09;9.50;22.00
12156;DHT22;6141;49.092;8.516;2023-04-03T16:02:40;9.50;19.60
12156;DHT22;6141;49.092;8.516;2023-04-03T16:05:09;9.60;20.20
12156;DHT22;6141;49.092;8.516;2023-04-03T16:07:41;9.70;21.20
12156;DHT22;6141;49.092;8.516;2023-04-03T16:10:11;9.80;21.20
12156;DHT22;6141;49.092;8.516;2023-04-03T16:12:44;9.80;20.40
12156;DHT22;6141;49.092;8.516;2023-04-03T16:15:14;9.50;19.70
12156;DHT22;6141;49.092;8.516;2023-04-03T16:17:42;9.30;19.20
12156;DHT22;6141;49.092;8.516;2023-04-03T16:20:11;9.10;19.30
12156;DHT22;6141;49.092;8.516;2023-04-03T16:22:40;9.00;20.10
12156;DHT22;6141;49.092;8.516;2023-04-03T16:25:09;9.00;19.90
12156;DHT22;6141;49.092;8.516;2023-04-03T16:27:39;9.10;20.30
12156;DHT22;6141;49.092;8.516;2023-04-03T16:30:10;9.10;20.50
12156;DHT22;6141;49.092;8.516;2023-04-03T16:32:42;9.10;20.60
12156;DHT22;6141;49.092;8.516;2023-04-03T16:35:11;9.30;20.80
12156;DHT22;6141;49.092;8.516;2023-04-03T16:37:41;9.20;20.10
12156;DHT22;6141;49.092;8.516;2023-04-03T16:40:09;9.10;20.70
12156;DHT22;6141;49.092;8.516;2023-04-03T16:42:38;9.20;20.90